• Join FlightAware (Why Join?)
  • Login
  • US Flag 
03:58PM EDT


 

Airport Tracker/Info


-or-


 

Live Flight TrackerFlight Track Log ✈ KAP927 ✈ 27-Jun-2013 ✈ KALB - KBOS

Flight Track Log - Related Links

Times and Time Zones

All times are in EDT time to prevent confusion due to time zone crossing. See the KAP927 flight status page for this flight to view local times or setup timezone preferences in your user account.

Time Position Orientation Groundspeed Altitude Reporting Facility
EDT Latitude Longitude Course Direction KTS MPH feet Rate Location/Type
08:18AM 42.7133 -73.7822 140° Southeast 119 137 1,700  Level Boston Center
08:19AM 42.7203 -73.7372 78° East 121 139 2,300 540 Climbing Boston Center
08:20AM 42.7269 -73.6950 78° East 119 137 2,900 600 Climbing Boston Center
08:21AM 42.7336 -73.6528 78° East 120 138 3,600 540 Climbing Boston Center
08:22AM 42.7403 -73.6047 79° East 127 146 4,100 540 Climbing Boston Center
08:23AM 42.7514 -73.5483 75° East 135 155 4,700 540 Climbing Boston Center
08:24AM 42.7603 -73.4978 77° East 139 160 5,200 480 Climbing Boston Center
08:25AM 42.7669 -73.4497 79° East 138 159 5,700 480 Climbing Boston Center
08:26AM 42.7756 -73.3989 77° East 137 158 6,200 480 Climbing Boston Center
08:27AM 42.7803 -73.3453 83° East 144 166 6,700 360 Climbing Boston Center
08:28AM 42.7681 -73.2997 110° East 153 176 6,900 180 Climbing Boston Center
08:29AM 42.7561 -73.2489 108° East 172 198 7,100  Climbing Boston Center
08:30AM 42.7461 -73.1864 102° East 172 198 7,000 -60 Descending Boston Center
08:31AM 42.7361 -73.1214 102° East 166 191 7,000  Level Boston Center
08:32AM 42.7258 -73.0619 103° East 166 191 7,000  Level Boston Center
08:33AM 42.7158 -73.0025 103° East 166 191 7,000  Level Boston Center
08:34AM 42.7056 -72.9431 103° East 161 185 7,000  Level Boston Center
08:35AM 42.6956 -72.8808 102° East 161 185 7,000  Level Boston Center
08:36AM 42.6853 -72.8186 103° East 161 185 7,000  Level Boston Center
08:37AM 42.6750 -72.7592 103° East 166 191 7,000  Level Boston Center
08:38AM 42.6628 -72.6997 106° East 166 191 7,000  Level Boston Center
08:39AM 42.6525 -72.6378 103° East 166 191 7,000  Level Boston Center
08:40AM 42.6400 -72.5783 106° East 166 191 7,000  Level Boston Center
08:41AM 42.6297 -72.5164 103° East 166 191 7,000  Level Boston Center
08:42AM 42.6192 -72.4569 104° East 166 191 7,000  Level Boston Center
08:43AM 42.6067 -72.3978 106° East 166 191 7,000  Level Boston Center
08:44AM 42.5964 -72.3358 103° East 166 191 7,000  Level Boston Center
08:45AM 42.5858 -72.2764 104° East 161 185 7,000  Level Boston Center
08:46AM 42.5731 -72.2117 105° East 172 198 7,000  Level Boston Center
08:47AM 42.5625 -72.1583 105° East 161 185 7,000  Level Boston Center
08:48AM 42.5500 -72.0933 105° East 167 192 7,000  Level Boston Center
08:49AM 42.5414 -72.0342 101° East 167 192 7,000  Level Boston Center
08:50AM 42.5369 -71.9667 95° East 167 192 7,000  Level Boston Center
08:51AM 42.5325 -71.9106 96° East 162 186 7,000  Level Boston Center
08:52AM 42.5258 -71.8428 98° East 162 186 7,000  Level Boston Center
08:53AM 42.5214 -71.7867 96° East 162 186 7,000  Level Boston Center
08:54AM 42.5147 -71.7189 98° East 162 186 7,000  Level Boston Center
08:55AM 42.5103 -71.6628 96° East 162 186 7,000  Level Boston Center
08:56AM 42.5000 -71.5833 100° East 172 198 7,100  Climbing KA90
08:57AM 42.5000 -71.5333 90° East 171 197 7,100 -300 Level KA90
08:58AM 42.5000 -71.4667 90° East 176 203 6,600 -600 Descending KA90
08:59AM 42.4833 -71.3833 105° East 193 222 6,000 -540 Descending KA90
09:00AM 42.4500 -71.3333 132° Southeast 185 213 5,600 -420 Descending KA90
09:01AM 42.4167 -71.3000 144° Southeast 179 206 5,200 -480 Descending KA90
09:02AM 42.3667 -71.2667 154° Southeast 176 203 4,700 -420 Descending KA90
09:03AM 42.3333 -71.2333 144° Southeast 172 198 4,400 -420 Descending KA90
09:04AM 42.2833 -71.2000 154° Southeast 170 196 3,900 -480 Descending KA90
09:05AM 42.2500 -71.1833 160° South 170 196 3,500 -420 Descending KA90
09:06AM 42.2000 -71.1500 154° Southeast 170 196 3,100 -300 Descending KA90
09:07AM 42.2000 -71.0833 90° East 169 194 3,000 -420 Descending KA90
09:08AM 42.2500 -71.0667 14° North 186 214 2,300 -720 Descending KA90
09:09AM 42.3000 -71.0333 26° Northeast 180 207 1,600 -840 Descending KA90
09:10AM 42.3333 -71.0167 20° North 151 174 700 -900 Descending KA90
09:12AM 42.3500 -71.0000 270° West  Level FlightAware Approximate
09:19AM 42.3630 -71.0064 270° West  Level Estimated